Time;durP1;ratioP1;P1;durP2;ratioP2;P2;SDS_P1;SDS_P2;PMS_P1;PMS_P2;Temp;Humidity;BMP_temperature;BMP_pressure;BME280_temperature;BME280_humidity;BME280_pressure;Samples;Min_cycle;Max_cycle;Signal;HPM_P1;HPM_P2
2023/05/04 00:00:06;;;;;;;5.83;2.83;;;;;;;;;;5023589;28;20436;-78
2023/05/04 00:02:32;;;;;;;3.80;3.00;;;;;;;;;;5034988;28;20474;-78
2023/05/04 00:04:58;;;;;;;6.75;2.88;;;;;;;;;;5030952;28;20417;-77
2023/05/04 00:07:24;;;;;;;5.13;2.80;;;;;;;;;;5018276;28;20189;-78
2023/05/04 00:09:50;;;;;;;6.57;3.20;;;;;;;;;;5017858;28;20460;-77
2023/05/04 00:12:16;;;;;;;4.87;3.13;;;;;;;;;;5017969;28;20194;-78
2023/05/04 00:14:42;;;;;;;8.20;3.55;;;;;;;;;;5001441;28;20416;-78
2023/05/04 00:17:09;;;;;;;4.27;3.00;;;;;;;;;;5001858;28;20536;-77
2023/05/04 00:19:36;;;;;;;5.80;3.35;;;;;;;;;;5018083;28;20409;-78
2023/05/04 00:22:02;;;;;;;4.35;3.00;;;;;;;;;;5035488;28;20173;-77
2023/05/04 00:24:28;;;;;;;4.00;3.15;;;;;;;;;;5018273;28;20345;-77
2023/05/04 00:26:54;;;;;;;8.75;3.58;;;;;;;;;;5035461;28;20304;-77
2023/05/04 00:29:20;;;;;;;10.45;4.85;;;;;;;;;;5035977;28;20227;-78
2023/05/04 00:31:46;;;;;;;5.20;3.35;;;;;;;;;;5001224;28;20344;-77
2023/05/04 00:34:12;;;;;;;5.77;4.53;;;;;;;;;;5018094;28;20232;-77
2023/05/04 00:36:38;;;;;;;3.83;3.42;;;;;;;;;;5035740;28;20409;-77
2023/05/04 00:39:04;;;;;;;4.25;3.40;;;;;;;;;;5018231;28;20182;-77
2023/05/04 00:41:31;;;;;;;4.63;3.70;;;;;;;;;;5035868;28;20497;-77
2023/05/04 00:43:58;;;;;;;4.80;3.33;;;;;;;;;;5018134;28;20401;-77
2023/05/04 00:46:25;;;;;;;6.18;3.60;;;;;;;;;;5036238;28;20201;-77
2023/05/04 00:48:51;;;;;;;5.68;3.95;;;;;;;;;;5018214;28;20173;-77
2023/05/04 00:51:19;;;;;;;5.20;3.63;;;;;;;;;;5035758;28;20538;-77
2023/05/04 00:53:45;;;;;;;5.22;3.80;;;;;;;;;;5035526;28;20188;-77
2023/05/04 00:56:12;;;;;;;4.38;3.55;;;;;;;;;;5018375;28;20174;-78
2023/05/04 00:58:37;;;;;;;7.85;3.72;;;;;;;;;;5035952;28;20205;-78
2023/05/04 01:01:04;;;;;;;4.50;3.50;;;;;;;;;;5035702;28;20229;-77
2023/05/04 01:03:30;;;;;;;6.40;3.78;;;;;;;;;;5018062;28;20972;-78
2023/05/04 01:06:02;;;;;;;4.80;3.72;;;;;;;;;;5036043;28;20201;-77
2023/05/04 01:08:34;;;;;;;6.25;3.20;;;;;;;;;;5018355;28;20269;-77
2023/05/04 01:11:03;;;;;;;5.97;3.63;;;;;;;;;;5035344;28;20186;-77
2023/05/04 01:13:32;;;;;;;5.05;3.70;;;;;;;;;;5039283;28;20186;-78
2023/05/04 01:15:58;;;;;;;9.55;3.90;;;;;;;;;;5022073;28;20178;-77
2023/05/04 01:18:25;;;;;;;5.53;3.75;;;;;;;;;;5022287;28;20181;-77
2023/05/04 01:20:51;;;;;;;4.95;3.55;;;;;;;;;;5005501;28;20178;-78
2023/05/04 01:23:17;;;;;;;4.40;3.37;;;;;;;;;;5022012;28;20274;-77
2023/05/04 01:25:49;;;;;;;4.60;2.53;;;;;;;;;;5039398;28;20397;-78
2023/05/04 01:28:19;;;;;;;5.30;2.53;;;;;;;;;;5039705;28;20393;-77
2023/05/04 01:30:47;;;;;;;5.82;2.40;;;;;;;;;;5021478;28;20345;-77
2023/05/04 01:33:14;;;;;;;7.13;2.70;;;;;;;;;;5021310;28;20177;-78
2023/05/04 01:35:41;;;;;;;3.67;2.63;;;;;;;;;;5021140;28;20174;-78
2023/05/04 01:38:07;;;;;;;3.38;2.33;;;;;;;;;;5021383;28;20240;-77
2023/05/04 01:40:33;;;;;;;5.82;2.40;;;;;;;;;;5039081;28;20240;-77
2023/05/04 01:42:59;;;;;;;5.00;2.37;;;;;;;;;;5005080;28;20561;-77
2023/05/04 01:45:25;;;;;;;3.15;2.40;;;;;;;;;;5039142;28;20405;-77
2023/05/04 01:47:51;;;;;;;5.33;2.23;;;;;;;;;;5038611;28;20245;-78
2023/05/04 01:50:17;;;;;;;4.50;2.50;;;;;;;;;;5039164;28;20471;-77
2023/05/04 01:52:43;;;;;;;4.75;2.53;;;;;;;;;;5038589;28;20404;-77
2023/05/04 01:55:09;;;;;;;3.23;2.43;;;;;;;;;;5021260;28;20175;-77
2023/05/04 01:57:35;;;;;;;5.38;2.70;;;;;;;;;;5038724;28;20405;-78
2023/05/04 02:00:01;;;;;;;4.15;2.85;;;;;;;;;;5021042;28;20186;-77
2023/05/04 02:02:27;;;;;;;3.70;2.60;;;;;;;;;;5020659;28;20226;-77
2023/05/04 02:04:53;;;;;;;6.83;2.53;;;;;;;;;;5038779;28;20413;-77
2023/05/04 02:07:19;;;;;;;6.67;2.23;;;;;;;;;;5039197;28;20409;-78
2023/05/04 02:09:45;;;;;;;5.53;3.00;;;;;;;;;;5038421;28;20465;-77
2023/05/04 02:12:11;;;;;;;2.77;2.40;;;;;;;;;;5021044;28;20409;-78
2023/05/04 02:14:37;;;;;;;3.77;2.60;;;;;;;;;;5021068;28;20409;-78
2023/05/04 02:17:02;;;;;;;3.97;2.60;;;;;;;;;;5004601;28;20417;-77
2023/05/04 02:19:28;;;;;;;7.40;2.60;;;;;;;;;;5004617;28;20421;-78
2023/05/04 02:21:55;;;;;;;9.23;3.10;;;;;;;;;;5038121;28;20420;-77
2023/05/04 02:24:21;;;;;;;6.30;2.65;;;;;;;;;;5036843;28;20472;-77
2023/05/04 02:26:47;;;;;;;3.65;2.42;;;;;;;;;;5020729;28;20184;-77
2023/05/04 02:29:12;;;;;;;4.27;2.93;;;;;;;;;;5020977;28;20257;-78
2023/05/04 02:31:38;;;;;;;4.50;2.40;;;;;;;;;;5020362;28;20487;-81
2023/05/04 02:34:04;;;;;;;9.93;3.33;;;;;;;;;;5038179;28;20405;-77
2023/05/04 02:36:30;;;;;;;5.30;2.33;;;;;;;;;;5038457;28;20408;-77
2023/05/04 02:38:59;;;;;;;6.60;2.80;;;;;;;;;;5004037;28;20178;-77
2023/05/04 02:41:25;;;;;;;4.40;2.50;;;;;;;;;;5004511;28;20535;-77
2023/05/04 02:43:51;;;;;;;5.38;2.70;;;;;;;;;;5019785;28;20182;-78
2023/05/04 02:46:18;;;;;;;5.00;2.47;;;;;;;;;;5037570;28;20170;-77
2023/05/04 02:48:45;;;;;;;3.42;2.97;;;;;;;;;;5020229;28;20170;-77
2023/05/04 02:51:11;;;;;;;3.85;2.58;;;;;;;;;;5003752;28;20206;-77
2023/05/04 02:53:36;;;;;;;4.15;2.50;;;;;;;;;;5003764;28;20198;-78
2023/05/04 02:56:03;;;;;;;8.00;2.80;;;;;;;;;;5020280;28;20226;-77
2023/05/04 02:58:29;;;;;;;3.20;2.70;;;;;;;;;;5020353;28;20803;-77
2023/05/04 03:00:55;;;;;;;3.70;2.50;;;;;;;;;;5037530;28;20234;-77
2023/05/04 03:03:21;;;;;;;7.97;2.60;;;;;;;;;;5020179;28;20943;-78
2023/05/04 03:05:47;;;;;;;4.15;3.10;;;;;;;;;;5019749;28;20216;-78
2023/05/04 03:08:13;;;;;;;5.13;2.53;;;;;;;;;;5003947;28;20178;-77
2023/05/04 03:10:39;;;;;;;3.30;2.93;;;;;;;;;;5003997;28;20575;-77
2023/05/04 03:13:05;;;;;;;3.10;2.50;;;;;;;;;;5036770;28;20428;-78
2023/05/04 03:15:34;;;;;;;7.38;3.35;;;;;;;;;;5037629;28;20424;-77
2023/05/04 03:18:00;;;;;;;3.97;2.15;;;;;;;;;;5037349;28;20174;-77
2023/05/04 03:20:26;;;;;;;4.00;2.85;;;;;;;;;;5037633;28;20185;-77
2023/05/04 03:22:52;;;;;;;9.93;2.97;;;;;;;;;;5019572;28;20179;-77
2023/05/04 03:25:18;;;;;;;3.23;2.93;;;;;;;;;;5003633;28;20456;-77
2023/05/04 03:27:44;;;;;;;3.75;2.30;;;;;;;;;;5036836;28;20409;-78
2023/05/04 03:30:11;;;;;;;4.00;2.90;;;;;;;;;;5037287;28;20212;-77
2023/05/04 03:32:37;;;;;;;5.07;2.88;;;;;;;;;;5037675;28;20421;-77
2023/05/04 03:35:03;;;;;;;2.80;2.50;;;;;;;;;;5019051;28;20802;-77
2023/05/04 03:37:29;;;;;;;8.38;4.15;;;;;;;;;;5037255;28;20412;-77
2023/05/04 03:39:55;;;;;;;5.80;2.22;;;;;;;;;;5036886;28;20175;-77
2023/05/04 03:42:21;;;;;;;6.13;2.40;;;;;;;;;;5018823;28;20250;-77
2023/05/04 03:44:47;;;;;;;4.60;2.70;;;;;;;;;;5002947;28;20174;-78
2023/05/04 03:47:13;;;;;;;6.50;2.63;;;;;;;;;;5037124;28;20174;-77
2023/05/04 03:49:39;;;;;;;6.17;2.80;;;;;;;;;;5002909;28;20463;-76
2023/05/04 03:52:05;;;;;;;3.08;2.20;;;;;;;;;;5018753;28;20412;-77
2023/05/04 03:54:31;;;;;;;4.03;2.55;;;;;;;;;;5036630;28;20642;-77
2023/05/04 03:56:57;;;;;;;4.03;2.87;;;;;;;;;;5036548;28;20190;-77
2023/05/04 03:59:23;;;;;;;6.10;2.70;;;;;;;;;;5019149;28;20437;-77
2023/05/04 04:01:49;;;;;;;3.53;2.13;;;;;;;;;;5018470;28;20497;-77
2023/05/04 04:04:15;;;;;;;6.28;2.95;;;;;;;;;;5036639;28;20224;-77
2023/05/04 04:06:41;;;;;;;6.35;2.67;;;;;;;;;;5018882;28;20178;-77
2023/05/04 04:09:07;;;;;;;2.53;2.03;;;;;;;;;;5018451;28;20519;-77
2023/05/04 04:11:34;;;;;;;3.90;2.60;;;;;;;;;;5036148;28;20487;-77
2023/05/04 04:14:00;;;;;;;4.15;2.53;;;;;;;;;;5018597;28;20825;-77
2023/05/04 04:16:26;;;;;;;4.77;2.50;;;;;;;;;;5018560;28;20273;-77
2023/05/04 04:18:52;;;;;;;4.35;2.50;;;;;;;;;;5036308;28;20499;-77
2023/05/04 04:21:18;;;;;;;2.67;2.47;;;;;;;;;;5036517;28;20618;-77
2023/05/04 04:23:44;;;;;;;5.30;2.40;;;;;;;;;;5018724;28;20424;-77
2023/05/04 04:26:10;;;;;;;4.88;2.70;;;;;;;;;;5002647;28;20413;-77
2023/05/04 04:28:36;;;;;;;6.50;2.40;;;;;;;;;;5002313;28;20180;-77
2023/05/04 04:31:02;;;;;;;3.30;2.43;;;;;;;;;;5018480;28;20473;-77
2023/05/04 04:33:28;;;;;;;2.83;2.55;;;;;;;;;;5018883;28;20413;-77
2023/05/04 04:35:55;;;;;;;3.97;2.33;;;;;;;;;;5035721;28;20261;-78
2023/05/04 04:38:21;;;;;;;3.35;2.38;;;;;;;;;;5018625;28;20614;-77
2023/05/04 04:40:47;;;;;;;5.00;3.58;;;;;;;;;;5018880;28;20277;-78
2023/05/04 04:43:13;;;;;;;5.17;2.83;;;;;;;;;;5019297;28;20217;-77
2023/05/04 04:45:40;;;;;;;3.67;3.03;;;;;;;;;;5001987;28;20452;-77
2023/05/04 04:48:06;;;;;;;3.45;2.53;;;;;;;;;;5024219;28;20189;-77
2023/05/04 04:50:32;;;;;;;3.38;2.67;;;;;;;;;;5024563;28;20224;-77
2023/05/04 04:52:58;;;;;;;3.58;2.60;;;;;;;;;;5025225;28;20236;-77
2023/05/04 04:55:25;;;;;;;5.30;2.95;;;;;;;;;;5042948;28;20185;-77
2023/05/04 04:57:51;;;;;;;6.05;2.88;;;;;;;;;;5007955;28;20181;-77
2023/05/04 05:00:18;;;;;;;5.45;2.90;;;;;;;;;;5042478;28;20177;-77
2023/05/04 05:02:44;;;;;;;6.65;2.80;;;;;;;;;;5008567;28;20255;-77
2023/05/04 05:05:12;;;;;;;4.22;2.92;;;;;;;;;;5041931;28;20170;-77
2023/05/04 05:07:38;;;;;;;2.97;2.63;;;;;;;;;;5024574;28;20181;-77
2023/05/04 05:10:04;;;;;;;3.30;2.70;;;;;;;;;;5008258;28;20685;-77
2023/05/04 05:12:30;;;;;;;3.35;3.05;;;;;;;;;;5024805;28;20622;-77
2023/05/04 05:14:56;;;;;;;4.93;2.97;;;;;;;;;;5008019;28;20182;-77
2023/05/04 05:17:22;;;;;;;3.47;3.17;;;;;;;;;;5042716;28;20177;-77
2023/05/04 05:19:48;;;;;;;6.73;2.80;;;;;;;;;;5024242;28;20272;-80
2023/05/04 05:22:15;;;;;;;10.20;3.83;;;;;;;;;;5024873;28;20420;-77
2023/05/04 05:24:41;;;;;;;6.47;3.10;;;;;;;;;;5042014;28;20189;-77
2023/05/04 05:27:07;;;;;;;6.05;2.65;;;;;;;;;;5024922;28;20545;-77
2023/05/04 05:29:34;;;;;;;10.48;3.10;;;;;;;;;;5024484;28;20186;-77
2023/05/04 05:32:00;;;;;;;6.97;3.55;;;;;;;;;;5023567;28;20217;-77
2023/05/04 05:34:26;;;;;;;5.43;3.25;;;;;;;;;;5024631;28;20189;-77
2023/05/04 05:36:52;;;;;;;4.10;3.00;;;;;;;;;;5023653;28;20208;-78
2023/05/04 05:39:18;;;;;;;6.93;2.80;;;;;;;;;;5041907;28;20174;-77
2023/05/04 05:41:44;;;;;;;5.75;2.83;;;;;;;;;;5042156;28;20415;-77
2023/05/04 05:44:10;;;;;;;2.90;2.60;;;;;;;;;;5041598;28;20182;-77
2023/05/04 05:46:36;;;;;;;6.10;2.80;;;;;;;;;;5024461;28;20581;-77
2023/05/04 05:49:04;;;;;;;7.13;2.87;;;;;;;;;;5024040;28;20209;-77
2023/05/04 05:51:30;;;;;;;2.83;2.50;;;;;;;;;;5041933;28;20471;-77
2023/05/04 05:53:56;;;;;;;4.88;3.05;;;;;;;;;;5041106;28;20202;-77
2023/05/04 05:56:22;;;;;;;3.70;2.93;;;;;;;;;;5023978;28;20205;-77
2023/05/04 05:58:51;;;;;;;8.23;3.20;;;;;;;;;;5006329;28;20424;-77
2023/05/04 06:01:17;;;;;;;4.97;2.80;;;;;;;;;;5038957;28;20472;-77
2023/05/04 06:03:43;;;;;;;5.23;3.30;;;;;;;;;;5021415;28;20174;-77
2023/05/04 06:06:09;;;;;;;4.40;3.27;;;;;;;;;;5038999;28;20432;-77
2023/05/04 06:08:35;;;;;;;4.18;2.95;;;;;;;;;;5039000;28;20492;-77
2023/05/04 06:11:01;;;;;;;8.87;3.63;;;;;;;;;;5020972;28;20198;-77
2023/05/04 06:13:27;;;;;;;6.50;3.87;;;;;;;;;;5020738;28;20417;-77
2023/05/04 06:15:53;;;;;;;7.57;3.83;;;;;;;;;;5020746;28;20842;-77
2023/05/04 06:18:19;;;;;;;4.60;3.30;;;;;;;;;;5021401;28;20413;-77
2023/05/04 06:20:46;;;;;;;4.90;3.23;;;;;;;;;;5021436;28;20417;-77
2023/05/04 06:23:13;;;;;;;5.00;3.37;;;;;;;;;;5020727;28;20417;-77
2023/05/04 06:25:39;;;;;;;6.10;3.17;;;;;;;;;;5020477;28;20424;-77
2023/05/04 06:28:06;;;;;;;7.93;3.03;;;;;;;;;;5038291;28;20466;-77
2023/05/04 06:30:32;;;;;;;4.47;3.10;;;;;;;;;;5038313;28;20495;-78
2023/05/04 06:32:58;;;;;;;2.90;2.70;;;;;;;;;;5020942;28;20194;-85
2023/05/04 06:35:24;;;;;;;8.40;3.00;;;;;;;;;;5003343;28;20517;-85
2023/05/04 06:37:51;;;;;;;4.77;3.10;;;;;;;;;;5019288;28;20790;-88
2023/05/04 06:40:17;;;;;;;7.10;3.40;;;;;;;;;;5036754;28;20379;-86
2023/05/04 06:42:43;;;;;;;4.63;2.90;;;;;;;;;;5036946;28;20443;-86
2023/05/04 06:45:09;;;;;;;4.33;3.23;;;;;;;;;;5019789;28;20483;-77
2023/05/04 06:47:36;;;;;;;5.53;3.73;;;;;;;;;;5037485;28;20397;-77
2023/05/04 06:50:06;;;;;;;4.77;3.80;;;;;;;;;;5037510;28;20460;-79
2023/05/04 06:52:32;;;;;;;9.20;3.60;;;;;;;;;;5037502;28;20383;-78
2023/05/04 06:54:59;;;;;;;6.20;3.20;;;;;;;;;;5003449;28;20413;-79
2023/05/04 06:57:25;;;;;;;4.77;3.10;;;;;;;;;;5037443;28;20467;-78
2023/05/04 06:59:52;;;;;;;4.10;3.43;;;;;;;;;;5003191;28;20424;-78
2023/05/04 07:02:18;;;;;;;7.00;3.40;;;;;;;;;;5018544;28;20472;-79
2023/05/04 07:04:44;;;;;;;5.50;2.83;;;;;;;;;;5018404;28;20440;-78
2023/05/04 07:07:10;;;;;;;4.20;2.83;;;;;;;;;;5019234;28;20436;-78
2023/05/04 07:09:36;;;;;;;5.97;3.43;;;;;;;;;;5019014;28;20395;-78
2023/05/04 07:12:03;;;;;;;5.50;2.80;;;;;;;;;;5019075;28;20405;-79
2023/05/04 07:14:29;;;;;;;4.73;3.60;;;;;;;;;;5036892;28;20432;-77
2023/05/04 07:16:55;;;;;;;4.30;3.47;;;;;;;;;;5036662;28;20405;-80
2023/05/04 07:19:21;;;;;;;6.67;3.57;;;;;;;;;;5036899;28;20409;-77
2023/05/04 07:21:47;;;;;;;4.70;3.17;;;;;;;;;;5036320;28;20872;-77
2023/05/04 07:24:13;;;;;;;5.37;3.43;;;;;;;;;;5018635;28;20421;-77
2023/05/04 07:26:39;;;;;;;8.40;3.90;;;;;;;;;;5036843;28;20423;-77
2023/05/04 07:29:05;;;;;;;4.13;3.70;;;;;;;;;;5019055;28;20421;-78
2023/05/04 07:31:32;;;;;;;6.77;3.50;;;;;;;;;;5036148;28;20480;-77
2023/05/04 07:33:58;;;;;;;7.37;3.60;;;;;;;;;;5035994;28;20419;-78
2023/05/04 07:36:25;;;;;;;7.97;4.00;;;;;;;;;;5036673;28;20409;-78
2023/05/04 07:38:51;;;;;;;5.90;3.43;;;;;;;;;;5036534;28;20419;-77
2023/05/04 07:41:17;;;;;;;9.07;3.40;;;;;;;;;;5018594;28;20425;-78
2023/05/04 07:43:43;;;;;;;9.93;3.97;;;;;;;;;;5018442;28;20520;-78
2023/05/04 07:46:09;;;;;;;5.27;3.50;;;;;;;;;;5036493;28;20375;-77
2023/05/04 07:48:35;;;;;;;4.13;3.77;;;;;;;;;;5036277;28;20402;-78
2023/05/04 07:51:01;;;;;;;7.70;4.20;;;;;;;;;;5018242;28;20487;-78
2023/05/04 07:53:27;;;;;;;6.90;3.70;;;;;;;;;;5036383;28;20405;-77
2023/05/04 07:55:56;;;;;;;5.00;3.60;;;;;;;;;;5018552;28;20809;-78
2023/05/04 07:58:22;;;;;;;6.03;3.43;;;;;;;;;;5017977;28;20419;-77
2023/05/04 08:00:48;;;;;;;7.87;3.80;;;;;;;;;;5018183;28;20497;-78
2023/05/04 08:03:14;;;;;;;3.20;2.90;;;;;;;;;;5018425;28;20755;-78
2023/05/04 08:05:40;;;;;;;5.27;3.53;;;;;;;;;;5001790;28;20424;-78
2023/05/04 08:08:08;;;;;;;7.87;3.40;;;;;;;;;;5018132;28;20459;-78
2023/05/04 08:10:37;;;;;;;5.50;3.60;;;;;;;;;;5018023;28;20485;-78
2023/05/04 08:13:04;;;;;;;5.27;4.17;;;;;;;;;;5017694;28;20420;-78
2023/05/04 08:15:30;;;;;;;5.00;3.50;;;;;;;;;;5035284;28;20451;-78
2023/05/04 08:17:56;;;;;;;5.17;4.07;;;;;;;;;;5017688;28;20384;-78
2023/05/04 08:20:22;;;;;;;8.50;3.97;;;;;;;;;;5017650;28;20384;-78
2023/05/04 08:22:48;;;;;;;4.10;3.10;;;;;;;;;;5034484;28;20443;-78
2023/05/04 08:25:14;;;;;;;6.90;3.53;;;;;;;;;;5017271;28;20401;-78
2023/05/04 08:27:40;;;;;;;7.93;3.93;;;;;;;;;;5017587;28;20409;-78
2023/05/04 08:30:07;;;;;;;6.60;3.60;;;;;;;;;;5034612;28;20495;-78
2023/05/04 08:32:34;;;;;;;5.03;3.53;;;;;;;;;;5034308;28;20447;-78
2023/05/04 08:35:00;;;;;;;8.80;4.20;;;;;;;;;;5000767;28;20388;-80
2023/05/04 08:37:26;;;;;;;4.53;3.53;;;;;;;;;;5034679;28;20409;-79
2023/05/04 08:39:52;;;;;;;4.43;3.87;;;;;;;;;;5016602;28;20475;-80
2023/05/04 08:42:28;;;;;;;5.30;3.53;;;;;;;;;;5016409;28;20420;-79
2023/05/04 08:44:56;;;;;;;7.83;5.07;;;;;;;;;;5016727;28;20413;-79
2023/05/04 08:47:22;;;;;;;6.00;3.87;;;;;;;;;;5034428;28;20405;-79
2023/05/04 08:49:48;;;;;;;6.30;3.53;;;;;;;;;;5015951;28;20421;-79
2023/05/04 08:52:15;;;;;;;7.23;4.20;;;;;;;;;;5016129;28;20417;-80
2023/05/04 08:54:42;;;;;;;8.53;3.90;;;;;;;;;;5016612;28;20409;-79
2023/05/04 08:57:08;;;;;;;4.27;3.13;;;;;;;;;;5016049;28;20781;-80
2023/05/04 08:59:35;;;;;;;6.63;3.57;;;;;;;;;;5016104;28;20413;-77
2023/05/04 09:02:02;;;;;;;4.70;3.80;;;;;;;;;;5015806;28;20480;-80
2023/05/04 09:04:30;;;;;;;4.77;4.00;;;;;;;;;;5016062;28;20445;-77
2023/05/04 09:06:57;;;;;;;7.70;4.30;;;;;;;;;;5033954;28;20409;-77
2023/05/04 09:09:25;;;;;;;6.90;4.07;;;;;;;;;;5015630;28;20495;-77
2023/05/04 09:11:52;;;;;;;3.83;3.50;;;;;;;;;;5015848;28;20466;-77
2023/05/04 09:14:18;;;;;;;6.47;3.80;;;;;;;;;;5033265;28;20874;-77
2023/05/04 09:16:44;;;;;;;7.30;3.33;;;;;;;;;;5016137;28;20967;-77
2023/05/04 09:19:20;;;;;;;4.33;3.77;;;;;;;;;;5032910;28;20405;-77
2023/05/04 09:21:48;;;;;;;6.20;3.60;;;;;;;;;;5015915;28;20845;-78
2023/05/04 09:24:14;;;;;;;7.23;3.77;;;;;;;;;;5015483;28;20420;-78
2023/05/04 09:26:40;;;;;;;4.87;4.17;;;;;;;;;;5015500;28;20421;-78
2023/05/04 09:29:10;;;;;;;7.77;3.57;;;;;;;;;;5015218;28;20405;-78
2023/05/04 09:31:44;;;;;;;6.97;4.03;;;;;;;;;;5032886;28;20480;-78
2023/05/04 09:34:10;;;;;;;6.67;3.60;;;;;;;;;;5035758;28;20409;-78
2023/05/04 09:36:37;;;;;;;7.43;3.90;;;;;;;;;;5019178;28;20413;-78
2023/05/04 09:39:12;;;;;;;5.67;3.30;;;;;;;;;;5019395;28;20467;-78
2023/05/04 09:41:38;;;;;;;11.10;4.17;;;;;;;;;;5036638;28;20400;-78
2023/05/04 09:44:04;;;;;;;6.50;3.90;;;;;;;;;;5018832;28;20471;-81
2023/05/04 09:46:31;;;;;;;3.50;3.20;;;;;;;;;;5019084;28;20416;-78
2023/05/04 09:48:57;;;;;;;4.87;3.97;;;;;;;;;;5018740;28;20551;-78
2023/05/04 09:51:25;;;;;;;5.43;3.87;;;;;;;;;;5018241;28;20488;-80
2023/05/04 09:53:51;;;;;;;4.43;3.17;;;;;;;;;;5036339;28;20444;-77
2023/05/04 09:56:24;;;;;;;6.03;3.93;;;;;;;;;;5036045;28;20416;-78
2023/05/04 09:58:50;;;;;;;4.90;2.93;;;;;;;;;;5036458;28;20404;-78
2023/05/04 10:01:16;;;;;;;3.57;3.27;;;;;;;;;;5018143;28;20464;-78
2023/05/04 10:03:43;;;;;;;6.47;3.30;;;;;;;;;;5036054;28;20773;-80
2023/05/04 10:06:10;;;;;;;6.60;2.93;;;;;;;;;;5018010;28;20413;-78
2023/05/04 10:08:38;;;;;;;8.40;3.37;;;;;;;;;;5018394;28;20459;-78
2023/05/04 10:11:04;;;;;;;3.87;3.00;;;;;;;;;;5035946;28;20486;-78
2023/05/04 10:13:31;;;;;;;4.97;3.20;;;;;;;;;;5018077;28;20498;-79
2023/05/04 10:16:20;;;;;;;4.47;3.20;;;;;;;;;;5036013;28;20437;-81
2023/05/04 10:19:04;;;;;;;5.93;3.87;;;;;;;;;;5036092;28;20401;-78
2023/05/04 10:21:48;;;;;;;4.47;2.73;;;;;;;;;;5035783;28;20551;-80
2023/05/04 10:24:14;;;;;;;6.07;3.47;;;;;;;;;;5017741;28;20413;-78
2023/05/04 10:26:58;;;;;;;6.20;3.40;;;;;;;;;;5017933;28;20798;-79
2023/05/04 10:29:25;;;;;;;7.53;3.70;;;;;;;;;;5035473;28;20389;-78
2023/05/04 10:31:52;;;;;;;4.17;2.90;;;;;;;;;;5035670;28;20979;-79
2023/05/04 10:34:25;;;;;;;3.80;2.40;;;;;;;;;;5017653;28;20421;-78
2023/05/04 10:36:51;;;;;;;6.23;2.73;;;;;;;;;;5017847;28;20410;-80
2023/05/04 10:39:19;;;;;;;3.10;2.77;;;;;;;;;;5035305;28;20811;-81
2023/05/04 10:42:02;;;;;;;5.43;3.20;;;;;;;;;;5017566;28;20422;-81
2023/05/04 10:44:29;;;;;;;4.33;2.97;;;;;;;;;;5036774;28;20416;-79
2023/05/04 10:46:56;;;;;;;9.03;3.50;;;;;;;;;;5036875;28;20855;-80
2023/05/04 10:49:22;;;;;;;4.50;2.83;;;;;;;;;;5035719;28;20759;-78
2023/05/04 10:51:48;;;;;;;4.93;2.80;;;;;;;;;;5054664;28;20455;-80
2023/05/04 10:54:19;;;;;;;3.43;2.90;;;;;;;;;;5036916;28;20737;-79
2023/05/04 10:56:45;;;;;;;4.10;3.03;;;;;;;;;;5036982;28;20415;-81
2023/05/04 10:59:13;;;;;;;4.13;3.00;;;;;;;;;;5054668;28;20392;-82
2023/05/04 11:01:46;;;;;;;4.60;2.70;;;;;;;;;;5054495;28;20487;-81
2023/05/04 11:04:19;;;;;;;7.73;2.80;;;;;;;;;;5036738;28;20412;-78
2023/05/04 11:06:55;;;;;;;3.97;2.97;;;;;;;;;;5037089;28;20478;-78
2023/05/04 11:09:21;;;;;;;4.10;2.50;;;;;;;;;;5036616;28;20762;-79
2023/05/04 11:11:48;;;;;;;5.03;2.80;;;;;;;;;;5020520;28;20478;-80
2023/05/04 11:14:22;;;;;;;2.90;2.67;;;;;;;;;;5037138;28;20804;-82
2023/05/04 11:16:48;;;;;;;7.93;2.63;;;;;;;;;;5036952;28;20511;-81
2023/05/04 11:19:17;;;;;;;2.90;2.37;;;;;;;;;;5036858;28;20737;-79
2023/05/04 11:21:43;;;;;;;2.80;2.60;;;;;;;;;;5054773;28;20408;-78
2023/05/04 11:24:09;;;;;;;6.83;2.70;;;;;;;;;;5020356;28;20771;-79
2023/05/04 11:26:45;;;;;;;6.83;3.43;;;;;;;;;;5054522;28;20419;-79
2023/05/04 11:29:14;;;;;;;10.50;3.27;;;;;;;;;;5036404;28;20410;-80
2023/05/04 11:31:43;;;;;;;4.50;2.83;;;;;;;;;;5036366;28;20509;-79
2023/05/04 11:34:19;;;;;;;4.17;2.33;;;;;;;;;;5054002;28;20426;-80
2023/05/04 11:36:46;;;;;;;3.70;2.50;;;;;;;;;;5036433;28;20412;-79
2023/05/04 11:39:12;;;;;;;3.77;3.13;;;;;;;;;;5053731;28;20458;-80
2023/05/04 11:41:39;;;;;;;3.00;2.70;;;;;;;;;;5036608;28;20428;-79
2023/05/04 11:44:05;;;;;;;3.20;2.37;;;;;;;;;;5036426;28;20491;-79
2023/05/04 11:46:33;;;;;;;4.50;2.57;;;;;;;;;;5019536;28;20442;-79
2023/05/04 11:48:59;;;;;;;3.97;2.60;;;;;;;;;;5019759;28;20431;-79
2023/05/04 11:51:27;;;;;;;3.13;2.83;;;;;;;;;;5035579;28;20784;-79
2023/05/04 11:53:54;;;;;;;5.30;2.90;;;;;;;;;;5035519;28;20427;-79
2023/05/04 11:56:20;;;;;;;3.43;3.10;;;;;;;;;;5053351;28;20410;-80
2023/05/04 11:58:46;;;;;;;6.30;3.00;;;;;;;;;;5019475;28;20444;-80
2023/05/04 12:01:12;;;;;;;4.27;2.70;;;;;;;;;;5053169;28;20856;-80
2023/05/04 12:03:40;;;;;;;3.23;2.77;;;;;;;;;;5035820;28;20855;-80
2023/05/04 12:06:06;;;;;;;5.07;3.07;;;;;;;;;;5019797;28;20424;-79
2023/05/04 12:08:40;;;;;;;3.40;2.53;;;;;;;;;;5019100;28;20427;-80
2023/05/04 12:11:20;;;;;;;3.40;2.80;;;;;;;;;;5035681;28;20466;-80
2023/05/04 12:13:47;;;;;;;4.50;2.90;;;;;;;;;;5054729;28;20408;-80
2023/05/04 12:16:13;;;;;;;4.20;3.10;;;;;;;;;;5035251;28;20502;-82
2023/05/04 12:18:40;;;;;;;3.10;2.30;;;;;;;;;;5035573;28;20910;-79
2023/05/04 12:21:13;;;;;;;6.70;3.03;;;;;;;;;;5035669;28;20770;-79
2023/05/04 12:23:40;;;;;;;3.13;2.83;;;;;;;;;;5053183;28;20439;-80
2023/05/04 12:26:07;;;;;;;4.23;3.20;;;;;;;;;;5053060;28;20408;-80
2023/05/04 12:28:34;;;;;;;4.47;2.70;;;;;;;;;;5052990;28;20476;-80
2023/05/04 12:31:00;;;;;;;5.00;2.80;;;;;;;;;;5035219;28;20510;-80
2023/05/04 12:33:26;;;;;;;3.60;3.10;;;;;;;;;;5035325;28;20498;-80
2023/05/04 12:35:53;;;;;;;7.43;2.70;;;;;;;;;;5019168;28;20423;-80
2023/05/04 12:38:19;;;;;;;3.87;2.90;;;;;;;;;;5035428;28;20448;-80
2023/05/04 12:40:45;;;;;;;3.30;3.00;;;;;;;;;;5053328;28;20415;-80
2023/05/04 12:43:14;;;;;;;3.47;2.50;;;;;;;;;;5018860;28;20523;-80
2023/05/04 12:45:40;;;;;;;3.53;2.80;;;;;;;;;;5053479;28;20493;-80
2023/05/04 12:48:06;;;;;;;2.80;2.17;;;;;;;;;;5052812;28;20778;-80
2023/05/04 12:50:32;;;;;;;3.00;2.70;;;;;;;;;;5018447;28;20470;-79
2023/05/04 12:52:58;;;;;;;2.80;2.50;;;;;;;;;;5018917;28;20424;-80
2023/05/04 12:55:24;;;;;;;6.80;3.10;;;;;;;;;;5035008;28;20419;-81
2023/05/04 12:57:50;;;;;;;2.80;2.20;;;;;;;;;;5052815;28;20447;-80
2023/05/04 13:00:16;;;;;;;4.70;2.70;;;;;;;;;;5035068;28;20420;-82
2023/05/04 13:02:43;;;;;;;2.67;2.43;;;;;;;;;;5034615;28;20502;-81
2023/05/04 13:05:09;;;;;;;4.63;2.43;;;;;;;;;;5052953;28;20451;-81
2023/05/04 13:07:36;;;;;;;5.43;2.10;;;;;;;;;;5018663;28;20563;-81
2023/05/04 13:10:02;;;;;;;3.60;2.60;;;;;;;;;;5056876;28;20396;-81
2023/05/04 13:12:28;;;;;;;2.70;2.30;;;;;;;;;;5022355;28;20423;-80
2023/05/04 13:14:55;;;;;;;2.90;2.70;;;;;;;;;;5039561;28;20431;-80
2023/05/04 13:17:21;;;;;;;2.83;2.17;;;;;;;;;;5039119;28;20400;-81
2023/05/04 13:19:48;;;;;;;2.90;2.37;;;;;;;;;;5022707;28;20556;-80
2023/05/04 13:22:14;;;;;;;2.37;1.90;;;;;;;;;;5056696;28;20400;-80
2023/05/04 13:24:40;;;;;;;2.23;2.03;;;;;;;;;;5022073;28;20420;-81
2023/05/04 13:27:06;;;;;;;2.40;2.20;;;;;;;;;;5038645;28;20422;-81
2023/05/04 13:29:32;;;;;;;2.43;2.23;;;;;;;;;;5038659;28;20495;-81
2023/05/04 13:31:58;;;;;;;4.13;2.40;;;;;;;;;;5056131;28;20510;-81
2023/05/04 13:34:24;;;;;;;5.10;2.37;;;;;;;;;;5038885;28;20419;-81
2023/05/04 13:36:50;;;;;;;3.87;2.77;;;;;;;;;;5056154;28;20454;-81
2023/05/04 13:39:18;;;;;;;2.40;2.20;;;;;;;;;;5038514;28;20428;-81
2023/05/04 13:41:44;;;;;;;3.20;2.20;;;;;;;;;;5056300;28;20549;-81
2023/05/04 13:44:11;;;;;;;3.00;2.17;;;;;;;;;;5038257;28;20420;-81
2023/05/04 13:46:37;;;;;;;4.10;3.03;;;;;;;;;;5038429;28;20872;-81
2023/05/04 13:49:03;;;;;;;4.30;2.60;;;;;;;;;;5038404;28;20415;-81
2023/05/04 13:51:29;;;;;;;2.17;1.87;;;;;;;;;;5037963;28;20923;-82
2023/05/04 13:53:55;;;;;;;2.30;2.00;;;;;;;;;;5021999;28;20427;-80
2023/05/04 13:56:22;;;;;;;3.37;2.33;;;;;;;;;;5021770;28;20424;-81
2023/05/04 13:58:48;;;;;;;3.70;2.43;;;;;;;;;;5056208;28;20420;-81
2023/05/04 14:01:14;;;;;;;3.27;2.37;;;;;;;;;;5055675;28;20512;-81
2023/05/04 14:03:41;;;;;;;2.17;1.97;;;;;;;;;;5056011;28;20391;-82
2023/05/04 14:06:08;;;;;;;2.80;1.93;;;;;;;;;;5038061;28;20916;-80
2023/05/04 14:08:34;;;;;;;2.30;2.10;;;;;;;;;;5055709;28;20495;-80
2023/05/04 14:11:00;;;;;;;2.40;2.20;;;;;;;;;;5056024;28;20422;-80
2023/05/04 14:13:26;;;;;;;3.40;2.40;;;;;;;;;;5037892;28;20490;-81
2023/05/04 14:15:52;;;;;;;5.40;2.33;;;;;;;;;;5021551;28;20481;-80
2023/05/04 14:18:18;;;;;;;2.23;2.03;;;;;;;;;;5037804;28;20428;-81
2023/05/04 14:20:44;;;;;;;2.50;2.00;;;;;;;;;;5035985;28;20471;-80
2023/05/04 14:23:10;;;;;;;4.50;1.97;;;;;;;;;;5021321;28;20420;-80
2023/05/04 14:25:36;;;;;;;4.17;2.10;;;;;;;;;;5037590;28;20404;-80
2023/05/04 14:28:02;;;;;;;3.33;2.20;;;;;;;;;;5055497;28;20481;-81
2023/05/04 14:30:28;;;;;;;2.10;1.90;;;;;;;;;;5054896;28;20777;-80
2023/05/04 14:32:55;;;;;;;2.07;1.67;;;;;;;;;;5055530;28;20412;-81
2023/05/04 14:35:21;;;;;;;4.30;2.10;;;;;;;;;;5037500;28;20419;-83
2023/05/04 14:37:48;;;;;;;2.40;2.20;;;;;;;;;;5020864;28;20424;-81
2023/05/04 14:40:14;;;;;;;2.47;2.20;;;;;;;;;;5037365;28;20870;-81